Amelia Court House, Virginia
Current Conditions -  °F | °C
As of 11:15 AM on Friday 21 Nov 2014 (Local Time) from KW81 Reporting Station
Clear Clear  
Wind Chill: 38°   Ceiling: Unl
Heat Index: 38°   Visibility: 10mi
Dew Point:   Wind: 3mph
Humidity: 28%   Direction: 330°NNW
Pressure: 30.45"   Gusts: NA
Location:  37.34°N, 77.98°W
Report Text: KW81 211615Z AUTO 33003KT 10SM CLR 04/M13 A3045 RMK AO1 T00361134
Loading
Personal Weather Stations






























Interactive Weather Map New forecast layout! Learn more

10-Day Weather Forecast

Advertisements
Track Severe Weather on mobile